Time;durP1;ratioP1;P1;durP2;ratioP2;P2;SDS_P1;SDS_P2;PMS_P1;PMS_P2;Temp;Humidity;BMP_temperature;BMP_pressure;BME280_temperature;BME280_humidity;BME280_pressure;Samples;Min_cycle;Max_cycle;Signal;HPM_P1;HPM_P2
2023/12/31 00:01:28;;;;;;;4.22;2.00;;;;;;;10.41;65.49;99824.34;10475961;28;20068;-65
2023/12/31 00:06:30;;;;;;;3.95;2.00;;;;;;;10.41;65.22;99805.53;10485063;28;20047;-63
2023/12/31 00:11:31;;;;;;;6.45;2.53;;;;;;;10.31;66.16;99792.38;10465797;28;20074;-62
2023/12/31 00:16:33;;;;;;;10.13;3.28;;;;;;;10.34;65.77;99784.97;10464046;28;20447;-63
2023/12/31 00:21:35;;;;;;;8.13;2.33;;;;;;;10.35;65.76;99775.88;10463927;28;20096;-63
2023/12/31 00:26:37;;;;;;;6.13;2.00;;;;;;;10.36;66.06;99773.00;10468986;28;20060;-63
2023/12/31 00:31:38;;;;;;;7.72;3.47;;;;;;;10.30;65.95;99763.84;10467694;28;20059;-63
2023/12/31 00:36:40;;;;;;;6.50;2.00;;;;;;;10.20;66.33;99744.47;10480911;28;20481;-62
2023/12/31 00:41:41;;;;;;;3.50;1.65;;;;;;;9.93;66.61;99754.06;10481797;28;20040;-65
2023/12/31 00:46:43;;;;;;;3.08;1.58;;;;;;;9.62;67.41;99746.22;10501616;28;20112;-64
2023/12/31 00:51:44;;;;;;;8.98;1.88;;;;;;;9.43;67.58;99736.84;10502185;28;20041;-63
2023/12/31 00:56:46;;;;;;;4.93;2.40;;;;;;;9.24;67.60;99731.00;10498247;28;20060;-64
2023/12/31 01:01:47;;;;;;;6.53;2.50;;;;;;;9.11;67.64;99718.22;10482972;28;20052;-63
2023/12/31 01:06:49;;;;;;;5.60;2.70;;;;;;;8.95;67.79;99718.38;10499791;28;20053;-62
2023/12/31 01:11:50;;;;;;;4.78;2.22;;;;;;;8.79;67.94;99707.78;10500775;28;20116;-63
2023/12/31 01:16:52;;;;;;;5.40;2.75;;;;;;;8.63;68.13;99712.28;10495458;28;20434;-63
2023/12/31 01:21:55;;;;;;;5.28;2.65;;;;;;;8.50;68.31;99712.03;10500371;28;20041;-62
2023/12/31 01:26:56;;;;;;;8.88;3.20;;;;;;;8.36;68.63;99705.56;10498555;28;20041;-63
2023/12/31 01:31:59;;;;;;;9.57;3.80;;;;;;;8.26;68.52;99699.63;10500499;28;20020;-63
2023/12/31 01:37:00;;;;;;;12.77;4.75;;;;;;;8.12;68.81;99683.28;10509246;28;20051;-63
2023/12/31 01:42:02;;;;;;;8.30;4.57;;;;;;;7.98;68.57;99672.47;10504629;28;20174;-63
2023/12/31 01:47:05;;;;;;;10.63;3.30;;;;;;;7.84;68.66;99668.72;10510692;28;20052;-63
2023/12/31 01:52:06;;;;;;;5.45;3.13;;;;;;;7.64;69.72;99670.97;10510724;28;20049;-63
2023/12/31 01:57:10;;;;;;;9.02;4.03;;;;;;;7.50;69.42;99677.91;10504744;28;20044;-63
2023/12/31 02:02:11;;;;;;;11.60;3.63;;;;;;;7.35;70.03;99661.75;10513833;28;20052;-63
2023/12/31 02:07:13;;;;;;;8.05;3.25;;;;;;;7.27;70.08;99646.56;10512767;28;20037;-63
2023/12/31 02:12:15;;;;;;;7.45;3.45;;;;;;;7.14;69.75;99649.75;10513280;28;20037;-64
2023/12/31 02:17:16;;;;;;;6.20;2.70;;;;;;;6.82;71.19;99644.50;10509944;28;20104;-62
2023/12/31 02:22:18;;;;;;;8.95;3.20;;;;;;;6.85;70.98;99639.66;10517517;28;20044;-63
2023/12/31 02:27:19;;;;;;;8.27;3.40;;;;;;;6.91;70.90;99630.97;10512587;28;20053;-63
2023/12/31 02:32:21;;;;;;;6.82;2.97;;;;;;;6.86;70.90;99635.97;10508535;28;20073;-63
2023/12/31 02:37:22;;;;;;;5.00;2.13;;;;;;;6.81;71.13;99594.75;10511200;28;20044;-63
2023/12/31 02:42:24;;;;;;;6.22;2.30;;;;;;;6.77;70.37;99580.88;10513563;28;20056;-63
2023/12/31 02:47:25;;;;;;;7.22;4.00;;;;;;;6.54;71.04;99557.56;10504757;28;20033;-63
2023/12/31 02:52:27;;;;;;;6.13;2.80;;;;;;;6.57;70.71;99556.41;10509523;28;20037;-63
2023/12/31 02:57:28;;;;;;;6.70;3.38;;;;;;;6.54;71.23;99538.06;10510201;28;20425;-63
2023/12/31 03:02:29;;;;;;;7.95;3.25;;;;;;;6.44;71.18;99530.25;10511660;28;20071;-63
2023/12/31 03:07:31;;;;;;;7.72;3.22;;;;;;;6.39;71.17;99529.91;10507762;28;20025;-63
2023/12/31 03:12:32;;;;;;;6.65;3.60;;;;;;;6.46;70.75;99532.75;10506272;28;20036;-63
2023/12/31 03:17:34;;;;;;;9.27;3.28;;;;;;;6.41;71.48;99532.41;10509549;28;20119;-63
2023/12/31 03:22:35;;;;;;;5.65;3.17;;;;;;;6.39;70.48;99527.22;10513557;28;20080;-63
2023/12/31 03:27:45;;;;;;;13.70;3.10;;;;;;;6.39;71.46;99519.22;10508066;28;20053;-62
2023/12/31 03:32:46;;;;;;;6.25;3.03;;;;;;;6.36;71.25;99508.91;10489219;28;20521;-63
2023/12/31 03:37:49;;;;;;;6.93;2.70;;;;;;;6.33;70.81;99490.53;10504605;28;20051;-62
2023/12/31 03:42:50;;;;;;;10.85;4.13;;;;;;;6.14;71.37;99511.25;10505568;28;20040;-63
2023/12/31 03:47:51;;;;;;;12.98;4.97;;;;;;;6.07;72.16;99496.91;10505550;28;20033;-63
2023/12/31 03:52:53;;;;;;;12.70;4.68;;;;;;;6.25;71.33;99494.06;10488055;28;20037;-62
2023/12/31 03:57:54;;;;;;;13.13;5.20;;;;;;;6.35;70.81;99472.53;10509459;28;20033;-62
2023/12/31 04:02:56;;;;;;;8.38;3.85;;;;;;;6.33;71.19;99469.19;10504328;28;20329;-63
2023/12/31 04:07:57;;;;;;;8.90;4.05;;;;;;;6.39;71.41;99455.16;10507702;28;20105;-62
2023/12/31 04:12:59;;;;;;;20.77;5.60;;;;;;;6.41;71.48;99453.16;10511286;28;20033;-63
2023/12/31 04:18:01;;;;;;;10.18;5.57;;;;;;;6.44;71.06;99439.47;10505848;28;20113;-63
2023/12/31 04:23:03;;;;;;;9.40;4.25;;;;;;;6.35;71.57;99449.31;10507215;28;20048;-62
2023/12/31 04:28:05;;;;;;;10.80;4.30;;;;;;;6.32;72.75;99446.19;10506963;28;20070;-62
2023/12/31 04:33:06;;;;;;;10.75;4.50;;;;;;;6.42;72.60;99436.16;10511815;28;20048;-63
2023/12/31 04:38:08;;;;;;;10.20;4.50;;;;;;;6.58;72.00;99426.41;10508035;28;20033;-62
2023/12/31 04:43:09;;;;;;;10.90;4.30;;;;;;;6.80;71.88;99414.97;10512706;28;20087;-62
2023/12/31 04:48:11;;;;;;;8.48;4.78;;;;;;;6.87;71.99;99404.38;10509968;28;20028;-63
2023/12/31 04:53:15;;;;;;;17.02;5.00;;;;;;;6.92;71.59;99402.84;10513233;28;20092;-63
2023/12/31 04:58:17;;;;;;;9.25;4.05;;;;;;;7.12;71.27;99389.03;10460646;28;20517;-63
2023/12/31 05:03:19;;;;;;;8.27;4.43;;;;;;;7.24;71.14;99390.28;10452593;28;20043;-63
2023/12/31 05:08:20;;;;;;;15.02;6.00;;;;;;;7.19;71.75;99382.00;10454203;28;20179;-63
2023/12/31 05:13:21;;;;;;;11.18;6.25;;;;;;;7.36;71.43;99361.31;10458589;28;20056;-64
2023/12/31 05:18:23;;;;;;;8.68;4.00;;;;;;;7.43;71.46;99350.75;10452964;28;20102;-64
2023/12/31 05:23:24;;;;;;;11.57;5.03;;;;;;;7.46;70.78;99355.72;10458344;28;20107;-64
2023/12/31 05:28:26;;;;;;;6.50;3.92;;;;;;;7.36;71.33;99353.28;10458394;28;20036;-64
2023/12/31 05:33:27;;;;;;;7.43;3.05;;;;;;;7.30;72.51;99345.97;10462508;28;20051;-64
2023/12/31 05:38:29;;;;;;;7.97;3.20;;;;;;;7.49;71.39;99331.28;10469606;28;20049;-64
2023/12/31 05:43:30;;;;;;;11.70;3.53;;;;;;;7.58;71.14;99330.19;10466086;28;20055;-64
2023/12/31 05:48:32;;;;;;;45.92;20.05;;;;;;;7.51;71.63;99321.25;10455537;28;20036;-63
2023/12/31 05:53:33;;;;;;;16.20;7.07;;;;;;;7.35;71.74;99311.53;10462998;28;20044;-64
2023/12/31 05:58:35;;;;;;;12.75;4.82;;;;;;;7.43;71.46;99305.28;10465355;28;20055;-64
2023/12/31 06:03:36;;;;;;;10.40;4.68;;;;;;;7.53;71.56;99297.81;10460685;28;20049;-64
2023/12/31 06:08:38;;;;;;;16.02;8.38;;;;;;;7.63;70.82;99276.16;10487854;28;20049;-61
2023/12/31 06:13:39;;;;;;;10.10;5.45;;;;;;;7.62;71.35;99291.41;10495214;28;20059;-61
2023/12/31 06:18:40;;;;;;;7.78;3.50;;;;;;;7.47;71.66;99286.00;10494643;28;20033;-61
2023/12/31 06:23:42;;;;;;;6.88;3.30;;;;;;;7.30;71.85;99284.50;10498294;28;20047;-63
2023/12/31 06:28:44;;;;;;;12.00;3.05;;;;;;;7.24;72.83;99285.22;10479991;28;20035;-61
2023/12/31 06:33:45;;;;;;;4.85;2.25;;;;;;;7.20;72.10;99282.09;10496349;28;20104;-62
2023/12/31 06:38:47;;;;;;;6.30;2.50;;;;;;;7.40;72.45;99278.91;10494972;28;20071;-62
2023/12/31 06:43:48;;;;;;;4.35;2.22;;;;;;;7.41;72.49;99278.72;10473813;28;20040;-62
2023/12/31 06:48:50;;;;;;;6.03;2.90;;;;;;;7.54;72.28;99280.75;10499543;28;20025;-62
2023/12/31 06:53:51;;;;;;;4.68;2.78;;;;;;;7.62;71.94;99275.34;10506589;28;20597;-62
2023/12/31 06:58:52;;;;;;;6.38;2.95;;;;;;;7.73;72.01;99268.69;10499260;28;20041;-59
2023/12/31 07:03:54;;;;;;;6.05;2.10;;;;;;;8.01;70.90;99268.84;10490626;28;20041;-62
2023/12/31 07:08:56;;;;;;;5.18;2.20;;;;;;;7.97;71.20;99272.94;10491212;28;20048;-62
2023/12/31 07:13:57;;;;;;;3.95;1.95;;;;;;;7.86;71.86;99281.41;10501758;28;20076;-61
2023/12/31 07:18:58;;;;;;;9.63;1.77;;;;;;;7.95;71.68;99267.75;10472264;28;20049;-64
2023/12/31 07:24:00;;;;;;;4.95;1.63;;;;;;;8.15;71.54;99264.50;10453328;28;20108;-64
2023/12/31 07:29:01;;;;;;;4.32;1.85;;;;;;;8.40;70.82;99248.13;10505221;28;20045;-64
2023/12/31 07:34:11;;;;;;;4.15;1.52;;;;;;;8.49;70.77;99237.13;10538672;22;20023;-64
2023/12/31 07:39:13;;;;;;;7.47;1.73;;;;;;;8.58;70.66;99242.38;10525027;28;20055;-64
2023/12/31 07:44:16;;;;;;;4.03;2.33;;;;;;;8.59;70.75;99234.16;10520656;28;20067;-64
2023/12/31 07:54:23;;;;;;;6.40;3.03;;;;;;;8.74;70.61;99226.03;10324191;28;20622;-86
2023/12/31 07:59:26;;;;;;;5.13;2.28;;;;;;;8.83;70.22;99219.53;10322493;28;20042;-86
2023/12/31 08:04:27;;;;;;;4.78;2.45;;;;;;;8.73;70.63;99219.84;10320951;28;20475;-87
2023/12/31 08:09:29;;;;;;;5.65;2.17;;;;;;;8.85;70.52;99220.16;10345682;28;20077;-85
2023/12/31 08:14:31;;;;;;;3.80;2.22;;;;;;;8.83;70.05;99211.50;10314532;28;20077;-85
2023/12/31 08:19:33;;;;;;;3.75;2.38;;;;;;;8.63;70.91;99208.63;10325152;28;20066;-86
2023/12/31 08:24:34;;;;;;;4.30;2.47;;;;;;;8.77;70.83;99208.72;10341743;28;20057;-84
2023/12/31 08:29:38;;;;;;;5.55;2.50;;;;;;;8.74;70.65;99199.25;10385702;28;20061;-86
2023/12/31 08:34:40;;;;;;;7.63;2.22;;;;;;;8.62;71.32;99200.78;10369728;28;20061;-86
2023/12/31 08:39:42;;;;;;;3.25;1.35;;;;;;;8.61;71.20;99193.75;10340270;28;20045;-90
2023/12/31 08:44:44;;;;;;;4.55;2.05;;;;;;;8.61;71.20;99194.59;10330670;28;20081;-88
2023/12/31 08:50:07;;;;;;;4.53;2.20;;;;;;;8.62;71.07;99176.69;10345976;28;20084;-88
2023/12/31 08:55:10;;;;;;;6.20;2.42;;;;;;;8.62;71.54;99168.63;10369096;23;20150;-65
2023/12/31 09:00:12;;;;;;;4.88;2.42;;;;;;;8.60;71.59;99166.16;10390569;28;20057;-64
2023/12/31 09:05:13;;;;;;;8.40;2.28;;;;;;;8.65;71.74;99157.53;10392860;28;20049;-66
2023/12/31 09:10:16;;;;;;;4.15;2.05;;;;;;;8.78;71.53;99154.97;10392606;28;20116;-63
2023/12/31 09:15:17;;;;;;;7.32;2.85;;;;;;;8.89;71.59;99159.78;10391760;28;20049;-66
2023/12/31 09:20:19;;;;;;;5.20;2.63;;;;;;;9.02;71.36;99151.00;10389778;28;20327;-66
2023/12/31 09:25:20;;;;;;;6.97;2.55;;;;;;;8.97;71.92;99149.97;10395477;28;20046;-67
2023/12/31 09:30:22;;;;;;;4.43;2.42;;;;;;;9.17;71.45;99139.38;10391481;28;20052;-67
2023/12/31 09:35:23;;;;;;;5.25;2.88;;;;;;;9.28;71.24;99138.81;10390702;28;20049;-66
2023/12/31 09:40:25;;;;;;;8.18;3.60;;;;;;;9.29;71.42;99140.47;10393056;28;20038;-66
2023/12/31 09:45:28;;;;;;;4.45;2.28;;;;;;;9.18;71.89;99139.16;10389370;28;20046;-66
2023/12/31 09:50:30;;;;;;;4.93;2.65;;;;;;;9.29;71.60;99129.75;10391887;28;20042;-66
2023/12/31 09:55:34;;;;;;;8.45;3.67;;;;;;;9.47;71.31;99115.81;10394348;28;20207;-66
2023/12/31 10:00:35;;;;;;;5.22;2.00;;;;;;;9.44;71.13;99116.19;10390883;28;20480;-65
2023/12/31 10:05:39;;;;;;;5.97;3.10;;;;;;;9.62;70.65;99116.50;10392438;28;20041;-66
2023/12/31 10:10:40;;;;;;;5.63;2.63;;;;;;;9.76;70.62;99111.19;10391678;28;20041;-66
2023/12/31 10:15:42;;;;;;;4.05;1.60;;;;;;;9.88;70.26;99105.00;10390602;28;20042;-66
2023/12/31 10:20:44;;;;;;;8.05;3.75;;;;;;;10.02;70.13;99086.25;10411436;28;20049;-66
2023/12/31 10:25:45;;;;;;;18.23;10.27;;;;;;;10.12;69.66;99074.09;10398059;28;20056;-66
2023/12/31 10:30:48;;;;;;;10.55;4.70;;;;;;;10.03;70.34;99051.16;10395190;28;20595;-66
2023/12/31 10:36:01;;;;;;;6.35;3.72;;;;;;;10.10;70.41;99045.78;10397527;28;20053;-65
2023/12/31 10:41:09;;;;;;;4.47;2.85;;;;;;;10.13;70.38;99030.09;10395212;28;20038;-65
2023/12/31 10:46:14;;;;;;;6.97;3.03;;;;;;;10.08;70.46;99016.47;10398924;28;20037;-66
2023/12/31 10:51:24;;;;;;;6.20;3.55;;;;;;;10.36;69.95;99006.56;10395841;28;20050;-67
2023/12/31 10:56:26;;;;;;;5.55;2.97;;;;;;;10.46;69.62;98991.66;10399474;28;20053;-68
2023/12/31 11:01:27;;;;;;;10.40;4.95;;;;;;;10.45;69.89;98995.41;10398783;28;20975;-69
2023/12/31 11:06:29;;;;;;;10.98;4.63;;;;;;;10.49;69.51;98999.31;10397980;28;20128;-66
2023/12/31 11:11:31;;;;;;;7.03;3.58;;;;;;;10.52;69.71;98995.38;10401426;28;20579;-70
2023/12/31 11:17:09;;;;;;;10.73;5.78;;;;;;;10.47;69.77;98995.22;10408718;28;20045;-65
2023/12/31 11:22:35;;;;;;;6.30;3.80;;;;;;;10.16;70.96;98998.50;10407379;28;20042;-68
2023/12/31 11:27:40;;;;;;;8.40;4.00;;;;;;;9.53;72.13;99080.13;10426810;28;20068;-69
2023/12/31 11:32:41;;;;;;;5.72;2.60;;;;;;;8.78;74.23;99069.22;10398782;28;20045;-67
2023/12/31 11:37:43;;;;;;;5.35;2.65;;;;;;;8.92;73.58;99021.91;10401302;28;20068;-67
2023/12/31 11:42:45;;;;;;;8.50;2.67;;;;;;;8.90;74.09;99003.31;10412336;28;20045;-68
2023/12/31 11:47:46;;;;;;;4.97;1.90;;;;;;;9.15;73.66;99002.03;10435819;28;20055;-67
2023/12/31 11:52:49;;;;;;;2.40;1.80;;;;;;;9.08;74.06;98999.28;10438025;28;20108;-67
2023/12/31 11:57:52;;;;;;;3.67;2.08;;;;;;;9.04;74.66;98990.81;10417340;28;20033;-69
2023/12/31 12:02:53;;;;;;;2.67;1.65;;;;;;;9.21;74.45;98980.59;10395401;28;20049;-69
2023/12/31 12:07:55;;;;;;;3.72;1.70;;;;;;;9.32;74.42;98961.25;10396867;28;20053;-68
2023/12/31 12:13:00;;;;;;;2.72;1.83;;;;;;;9.41;74.56;98964.53;10393932;28;20049;-68
2023/12/31 12:18:22;;;;;;;4.00;1.58;;;;;;;9.46;75.03;98959.41;10395150;28;20080;-68
2023/12/31 12:23:24;;;;;;;3.90;1.50;;;;;;;9.52;74.87;98972.00;10395973;28;20393;-68
2023/12/31 12:28:26;;;;;;;3.28;1.20;;;;;;;9.52;75.11;98963.97;10397198;28;20049;-67
2023/12/31 12:33:27;;;;;;;3.67;1.48;;;;;;;9.62;74.98;98968.94;10382191;28;20370;-67
2023/12/31 12:38:29;;;;;;;2.40;1.27;;;;;;;9.65;75.02;98973.88;10392579;28;20152;-67
2023/12/31 12:43:31;;;;;;;2.35;1.42;;;;;;;9.68;75.09;98976.16;10395562;28;20056;-70
2023/12/31 12:48:33;;;;;;;3.25;1.23;;;;;;;9.76;74.87;98975.16;10394343;28;20613;-67
2023/12/31 12:53:35;;;;;;;3.50;0.98;;;;;;;9.84;74.71;98982.19;10382483;28;20381;-67
2023/12/31 12:58:37;;;;;;;4.13;1.02;;;;;;;9.89;74.92;98980.53;10359219;28;20049;-68
2023/12/31 13:03:39;;;;;;;6.35;1.08;;;;;;;9.96;74.66;98980.53;10356722;28;20120;-67
2023/12/31 13:08:40;;;;;;;1.80;1.08;;;;;;;10.05;74.45;98981.13;10348189;28;20057;-68
2023/12/31 13:13:42;;;;;;;2.20;1.10;;;;;;;10.11;74.45;98999.94;10355460;28;20065;-66
2023/12/31 13:18:43;;;;;;;1.55;0.80;;;;;;;10.15;74.43;99007.56;10347522;28;20041;-68
2023/12/31 13:23:45;;;;;;;1.23;0.80;;;;;;;10.17;74.38;99000.13;10364920;28;20045;-68
2023/12/31 13:28:46;;;;;;;4.07;0.50;;;;;;;10.26;73.87;98999.72;10359351;28;20468;-66
2023/12/31 13:33:49;;;;;;;2.10;0.60;;;;;;;10.36;74.03;99001.19;10364635;28;20054;-67
2023/12/31 13:38:50;;;;;;;1.10;0.28;;;;;;;10.48;73.73;98992.28;10358026;28;20061;-67
2023/12/31 13:43:52;;;;;;;1.80;0.15;;;;;;;10.52;72.83;98992.69;10352539;28;20050;-66
2023/12/31 13:48:53;;;;;;;1.00;0.10;;;;;;;10.59;72.85;99004.28;10356386;28;20124;-66
2023/12/31 13:53:55;;;;;;;0.93;0.20;;;;;;;10.61;72.22;99001.38;10353464;28;20081;-67
2023/12/31 13:58:56;;;;;;;3.63;0.30;;;;;;;10.58;72.37;99010.66;10358687;28;20057;-66
2023/12/31 14:03:57;;;;;;;1.00;0.20;;;;;;;10.65;71.69;99016.06;10351684;28;20085;-67
2023/12/31 14:08:59;;;;;;;1.48;0.10;;;;;;;10.68;71.13;99024.53;10354638;28;20138;-67
2023/12/31 14:14:04;;;;;;;1.30;0.30;;;;;;;10.69;71.02;99020.78;10357076;28;20046;-67
2023/12/31 14:19:06;;;;;;;0.95;0.20;;;;;;;10.73;70.50;99001.56;10351355;28;20472;-65
2023/12/31 14:24:23;;;;;;;1.13;0.28;;;;;;;10.67;70.49;99001.38;10353433;28;20424;-65
2023/12/31 14:29:25;;;;;;;0.93;0.20;;;;;;;10.69;70.01;99017.28;10355297;28;20068;-65
2023/12/31 14:34:26;;;;;;;0.75;0.30;;;;;;;10.65;70.01;99003.44;10354963;28;20053;-65
2023/12/31 14:39:28;;;;;;;1.17;0.20;;;;;;;10.60;70.34;99030.09;10352760;28;20034;-63
2023/12/31 14:44:29;;;;;;;2.38;0.20;;;;;;;10.59;69.87;99035.69;10362693;28;20046;-63
2023/12/31 14:49:31;;;;;;;1.42;0.30;;;;;;;10.57;70.00;99027.03;10369492;28;20038;-63
2023/12/31 14:54:32;;;;;;;1.05;0.20;;;;;;;10.52;69.80;99022.25;10356970;28;20552;-64
2023/12/31 14:59:34;;;;;;;1.42;0.20;;;;;;;10.51;69.75;99032.19;10325982;28;20049;-64
2023/12/31 15:04:35;;;;;;;0.50;0.10;;;;;;;10.52;69.63;99043.75;10358561;28;20034;-64
2023/12/31 15:09:36;;;;;;;0.85;0.30;;;;;;;10.48;69.34;99046.03;10341157;28;20038;-64
2023/12/31 15:14:38;;;;;;;0.98;0.20;;;;;;;10.49;69.48;99076.41;10342128;28;20513;-66
2023/12/31 15:19:39;;;;;;;2.40;0.20;;;;;;;10.47;69.06;99071.25;10372002;23;20042;-65
2023/12/31 15:24:42;;;;;;;1.80;0.50;;;;;;;10.57;68.94;99081.59;10364181;28;20077;-64
2023/12/31 15:29:43;;;;;;;2.60;0.40;;;;;;;10.53;69.41;99058.84;10367599;28;20381;-66
2023/12/31 15:34:48;;;;;;;7.20;0.40;;;;;;;10.44;68.78;99062.78;10353248;28;20428;-66
2023/12/31 15:39:50;;;;;;;2.67;0.63;;;;;;;10.40;69.08;99056.97;10425275;23;20433;-66
2023/12/31 15:44:51;;;;;;;2.38;0.40;;;;;;;10.28;68.91;99070.16;10395204;28;20052;-66
2023/12/31 15:49:53;;;;;;;4.05;0.60;;;;;;;10.28;68.61;99062.13;10396607;28;20488;-66
2023/12/31 15:54:54;;;;;;;3.25;0.40;;;;;;;10.25;68.64;99073.28;10392726;28;20052;-66
2023/12/31 15:59:56;;;;;;;3.33;0.30;;;;;;;10.21;68.75;99079.25;10395848;28;20754;-66
2023/12/31 16:04:57;;;;;;;3.33;0.50;;;;;;;10.15;68.83;99098.88;10402454;28;20064;-68
2023/12/31 16:09:58;;;;;;;1.15;0.30;;;;;;;10.09;69.10;99111.25;10398097;28;20072;-66
2023/12/31 16:15:04;;;;;;;1.85;0.38;;;;;;;10.10;69.04;99129.03;10396950;28;20045;-67
2023/12/31 16:20:06;;;;;;;1.50;0.70;;;;;;;10.12;68.92;99149.25;10396657;28;20088;-64
2023/12/31 16:25:08;;;;;;;2.20;0.47;;;;;;;10.11;69.07;99134.19;10398385;28;20111;-68
2023/12/31 16:30:10;;;;;;;2.53;0.70;;;;;;;10.07;68.76;99145.53;10394195;28;20033;-65
2023/12/31 16:35:11;;;;;;;5.55;0.60;;;;;;;10.09;68.74;99152.38;10395905;28;20041;-61
2023/12/31 16:40:13;;;;;;;0.90;0.43;;;;;;;10.08;68.70;99160.63;10374517;28;20041;-63
2023/12/31 16:45:15;;;;;;;2.33;0.70;;;;;;;10.04;69.03;99157.50;10359630;28;20077;-64
2023/12/31 16:50:16;;;;;;;3.60;0.80;;;;;;;10.05;68.59;99161.88;10361902;28;20088;-63
2023/12/31 16:55:18;;;;;;;2.45;0.95;;;;;;;10.05;68.89;99169.91;10363633;28;20045;-62
2023/12/31 17:00:19;;;;;;;2.08;0.50;;;;;;;9.99;68.87;99176.09;10381608;28;20038;-63
2023/12/31 17:05:21;;;;;;;2.28;0.77;;;;;;;10.04;68.72;99199.66;10384304;28;20049;-64
2023/12/31 17:10:22;;;;;;;5.20;1.35;;;;;;;10.03;68.64;99192.59;10395802;28;20046;-64
2023/12/31 17:15:24;;;;;;;3.60;0.52;;;;;;;9.92;69.11;99194.03;10405052;28;20049;-62
2023/12/31 17:20:26;;;;;;;4.47;0.70;;;;;;;9.89;69.13;99191.72;10361381;28;20045;-64
2023/12/31 17:25:27;;;;;;;1.90;0.60;;;;;;;9.82;68.67;99164.06;10367626;28;20041;-64
2023/12/31 17:30:29;;;;;;;1.02;0.57;;;;;;;9.72;69.25;99188.56;10390653;28;20053;-62
2023/12/31 17:35:30;;;;;;;6.50;1.00;;;;;;;9.63;69.22;99177.16;10391508;28;20453;-63
2023/12/31 17:40:32;;;;;;;3.97;0.98;;;;;;;9.54;68.99;99183.75;10368849;28;20061;-63
2023/12/31 17:45:34;;;;;;;8.88;3.65;;;;;;;9.49;69.41;99186.19;10371090;28;20053;-63
2023/12/31 17:50:36;;;;;;;6.75;1.50;;;;;;;9.48;69.24;99206.00;10392380;28;20053;-63
2023/12/31 17:55:38;;;;;;;6.70;1.10;;;;;;;9.47;69.10;99189.03;10385917;28;20120;-62
2023/12/31 18:00:39;;;;;;;3.53;0.93;;;;;;;9.46;69.15;99186.59;10379867;28;20042;-62
2023/12/31 18:05:41;;;;;;;2.30;0.73;;;;;;;9.39;69.24;99189.22;10365169;28;20088;-62
2023/12/31 18:10:43;;;;;;;3.78;0.80;;;;;;;9.35;69.31;99198.69;10360366;28;20264;-63
2023/12/31 18:15:45;;;;;;;5.65;0.80;;;;;;;9.29;69.54;99186.88;10370166;28;20100;-62
2023/12/31 18:20:46;;;;;;;2.35;0.95;;;;;;;9.29;69.41;99186.88;10363167;28;20046;-63
2023/12/31 18:25:48;;;;;;;6.47;1.77;;;;;;;9.26;69.28;99189.97;10367491;28;20046;-63
2023/12/31 18:30:49;;;;;;;6.60;2.20;;;;;;;9.26;69.10;99184.59;10363884;28;20057;-61
2023/12/31 18:35:52;;;;;;;6.18;1.38;;;;;;;9.44;68.81;99199.34;10367729;28;20064;-63
2023/12/31 18:40:54;;;;;;;5.43;1.52;;;;;;;9.47;68.91;99210.50;10370934;28;20117;-62
2023/12/31 18:45:55;;;;;;;7.80;1.13;;;;;;;9.39;68.91;99207.16;10353104;28;20121;-61
2023/12/31 18:51:00;;;;;;;8.30;3.17;;;;;;;9.40;68.80;99215.03;10337410;28;20482;-60
2023/12/31 18:56:02;;;;;;;2.35;0.90;;;;;;;9.45;68.60;99217.94;10331933;28;20051;-60
2023/12/31 19:01:03;;;;;;;2.83;0.90;;;;;;;9.32;68.81;99224.03;10315209;28;20050;-60
2023/12/31 19:06:05;;;;;;;3.13;0.98;;;;;;;9.29;68.83;99234.31;10319608;28;20504;-60
2023/12/31 19:11:06;;;;;;;5.18;1.25;;;;;;;9.31;68.38;99243.81;10314252;28;20050;-60
2023/12/31 19:16:08;;;;;;;6.32;1.00;;;;;;;9.32;68.29;99250.88;10322294;28;20092;-60
2023/12/31 19:21:09;;;;;;;3.25;0.77;;;;;;;9.36;68.19;99250.44;10319889;28;20057;-61
2023/12/31 19:26:11;;;;;;;6.07;0.65;;;;;;;9.33;67.81;99251.69;10308151;28;20050;-60
2023/12/31 19:31:12;;;;;;;3.60;0.70;;;;;;;9.21;68.16;99261.28;10326120;28;20047;-59
2023/12/31 19:36:13;;;;;;;10.30;5.25;;;;;;;9.05;68.42;99259.72;10322742;28;20061;-60
2023/12/31 19:41:15;;;;;;;4.85;1.27;;;;;;;8.96;68.44;99269.72;10370305;28;20089;-59
2023/12/31 19:46:18;;;;;;;2.88;1.05;;;;;;;8.81;68.65;99256.41;10353271;28;20049;-60
2023/12/31 19:51:19;;;;;;;2.20;0.88;;;;;;;8.73;68.97;99264.56;10367668;28;20060;-60
2023/12/31 19:56:21;;;;;;;5.13;0.73;;;;;;;8.77;68.55;99278.41;10368336;28;20060;-60
2023/12/31 20:01:23;;;;;;;4.30;1.33;;;;;;;8.77;68.81;99271.22;10367173;28;20041;-60
2023/12/31 20:06:25;;;;;;;6.72;1.30;;;;;;;8.88;68.54;99280.56;10374041;28;20062;-59
2023/12/31 20:11:26;;;;;;;2.40;1.23;;;;;;;8.78;69.13;99269.34;10369569;28;20708;-60
2023/12/31 20:16:28;;;;;;;2.58;1.40;;;;;;;8.52;69.84;99266.19;10377320;28;20038;-61
2023/12/31 20:21:29;;;;;;;4.70;1.08;;;;;;;8.53;69.68;99283.09;10376246;28;20060;-60
2023/12/31 20:26:31;;;;;;;4.03;1.75;;;;;;;8.59;69.68;99271.66;10390493;28;20041;-65
2023/12/31 20:31:32;;;;;;;2.15;1.33;;;;;;;8.60;69.54;99275.16;10408119;28;20097;-65
2023/12/31 20:36:34;;;;;;;3.90;1.00;;;;;;;8.66;69.66;99267.16;10402636;28;20041;-65
2023/12/31 20:41:35;;;;;;;4.25;1.23;;;;;;;8.63;69.57;99270.25;10399385;28;20064;-64
2023/12/31 20:46:37;;;;;;;4.13;0.98;;;;;;;8.68;69.66;99272.34;10396093;28;20045;-63
2023/12/31 20:51:39;;;;;;;5.28;1.23;;;;;;;8.73;69.65;99288.69;10392277;28;20088;-65
2023/12/31 20:56:40;;;;;;;3.35;1.42;;;;;;;8.77;69.51;99291.78;10385983;28;20664;-63
2023/12/31 21:01:42;;;;;;;7.78;1.55;;;;;;;8.83;69.35;99291.06;10380489;28;20447;-63
2023/12/31 21:06:45;;;;;;;7.55;1.73;;;;;;;8.86;69.45;99290.66;10390093;28;20041;-65
2023/12/31 21:11:47;;;;;;;4.40;2.53;;;;;;;8.90;69.42;99281.22;10392615;28;20048;-63
2023/12/31 21:16:49;;;;;;;8.23;3.92;;;;;;;8.91;69.58;99275.66;10384330;28;20141;-64
2023/12/31 21:21:50;;;;;;;4.07;1.42;;;;;;;8.82;69.40;99279.50;10392082;28;20403;-63
2023/12/31 21:26:53;;;;;;;7.22;2.70;;;;;;;8.75;69.55;99267.91;10365143;28;20034;-65
2023/12/31 21:31:54;;;;;;;6.13;1.30;;;;;;;8.73;69.67;99270.75;10404910;28;20502;-65
2023/12/31 21:36:55;;;;;;;8.57;3.60;;;;;;;8.87;69.42;99270.91;10396779;28;20617;-66
2023/12/31 21:41:57;;;;;;;5.40;2.10;;;;;;;8.89;69.25;99261.63;10394631;28;20666;-66
2023/12/31 21:46:59;;;;;;;4.97;1.60;;;;;;;8.99;69.19;99258.63;10375104;28;20046;-70
2023/12/31 21:52:00;;;;;;;6.47;2.35;;;;;;;8.98;69.09;99256.97;10361118;28;20378;-67
2023/12/31 21:57:02;;;;;;;8.43;3.50;;;;;;;8.98;69.05;99253.47;10365140;28;20171;-68
2023/12/31 22:02:07;;;;;;;3.85;1.73;;;;;;;8.98;69.12;99261.50;10359738;28;20056;-66
2023/12/31 22:07:09;;;;;;;9.45;2.20;;;;;;;9.02;69.10;99265.44;10364964;28;20045;-66
2023/12/31 22:12:10;;;;;;;9.57;2.38;;;;;;;8.96;69.21;99266.22;10349814;28;20044;-66
2023/12/31 22:17:12;;;;;;;5.28;3.35;;;;;;;8.96;69.17;99267.03;10370783;28;20066;-67
2023/12/31 22:22:21;;;;;;;6.40;2.28;;;;;;;8.84;69.51;99287.34;10369288;28;20042;-67
2023/12/31 22:27:24;;;;;;;9.18;2.60;;;;;;;8.85;69.45;99284.47;10352748;28;20419;-67
2023/12/31 22:32:26;;;;;;;9.60;3.10;;;;;;;8.81;69.39;99285.88;10377001;28;20072;-67
2023/12/31 22:37:27;;;;;;;14.00;4.43;;;;;;;8.82;69.56;99284.84;10362753;28;20058;-67
2023/12/31 22:42:28;;;;;;;6.43;2.88;;;;;;;8.89;69.42;99285.75;10302283;28;20133;-68
2023/12/31 22:47:30;;;;;;;9.13;3.00;;;;;;;8.92;69.17;99295.25;10303943;28;20050;-67
2023/12/31 22:52:31;;;;;;;6.85;2.72;;;;;;;8.92;69.20;99293.41;10333400;28;20042;-65
2023/12/31 22:57:33;;;;;;;10.85;5.63;;;;;;;8.89;69.49;99292.97;10339725;28;20116;-61
2023/12/31 23:02:34;;;;;;;20.58;9.00;;;;;;;8.77;69.89;99292.66;10327881;28;20094;-63
2023/12/31 23:07:36;;;;;;;178.10;87.45;;;;;;;8.62;70.03;99287.31;10336845;28;20075;-63
2023/12/31 23:12:37;;;;;;;282.75;158.35;;;;;;;8.52;70.33;99282.28;10311171;28;20058;-63
2023/12/31 23:17:39;;;;;;;280.85;144.75;;;;;;;8.56;70.26;99287.25;10322649;28;20578;-63
2023/12/31 23:22:42;;;;;;;232.52;123.60;;;;;;;8.51;70.59;99282.44;10344949;28;20118;-63
2023/12/31 23:27:44;;;;;;;200.77;107.38;;;;;;;8.51;70.82;99294.03;10358667;28;20050;-62
2023/12/31 23:32:46;;;;;;;190.02;101.07;;;;;;;8.64;70.65;99284.47;10359552;28;20029;-62
2023/12/31 23:37:47;;;;;;;214.45;113.55;;;;;;;8.72;70.50;99289.69;10346292;28;20052;-62